GMMW

Details ICAO GMMW (NDR)
Name EL AROUI
Region Morocco
Timezone Africa/Casablanca (UTC+0.0)
Plans Departing 13
Arriving 39
Stats Elevation 574 ft / 175 m (AMSL)
Location 34.988779° -3.028204°
Runways 1
Magnetic Variation 0.430° W
Sunrise 2018-05-21 05:06:02 UTC / 2018-05-21 05:06:02 Local
Sunset 2018-05-21 19:14:13 UTC / 2018-05-21 19:14:13 Local
Advertisement - Login to hide

Runways

ID Width Length Bearing (true) Bearing (mag) Surface Threshold Offset Overrun Length
08 148 ft / 45 m 9,825 ft / 2,995 m 77.96° 78.39° Asphalt 0 ft / 0 m 0 ft / 0 m
26 148 ft / 45 m 9,825 ft / 2,995 m 257.97° 258.40° Asphalt 0 ft / 0 m 0 ft / 0 m

Map

Weather


0- 5 10 15 20 25 30 35+ Temperature / ° C

Clouds and Precipitation
Forecast for 2018-05-21 06:00 UTC. Updated an hour ago

Ground ~20,000 ft ~40,000 ft Winds

METAR

GMMW 210400Z 27002KT 8000 NSC 11/11 Q1012 NOSIG

TAF

TAF GMMW 202300Z 2100/2206 VRB02KT 9999 FEW020 PROB40 2100/2106 4000 BR BKN010 BECMG 2110/2112 04010KT CAVOK

Frequencies

Tower 136.20 MHz TWR
Tower 118.65 MHz TWR
Warning: Do not use this data for real-world aviation or navigation. No guarantee of current accuracy is given.